Rochdale, Mississippi
Current Conditions -  °F | °C
As of 8:15 PM on Saturday 25 Oct 2014 (Local Time) from KRNV Reporting Station
Clear Clear  
Wind Chill: 68°   Ceiling: Unl
Heat Index: 68°   Visibility: 10mi
Dew Point: 65°   Wind: 3mph
Humidity: 88%   Direction: 230°SW
Pressure: 30.05"   Gusts: NA
Location:  34.0609°N, 90.7985°W
Report Text: KRNV 260115Z AUTO 23003KT 10SM CLR 20/18 A3005 RMK AO2 T02020181
Loading
Personal Weather Stations






























Interactive Weather Map
Tropical Storm Tracking
New forecast layout! Learn more

10-Day Weather Forecast

Advertisements
Track Severe Weather on mobile